ADDS METAR Data INFO
IDs: Format: Raw Decoded Include TAF

Data at: 1540 UTC 24 Sep 2017

KJXI 241535Z AUTO 15004KT 10SM CLR 28/22 A2998 RMK AO2 T02770215
KJXI 241515Z AUTO 16004KT 10SM TS CLR 27/22 A2998 RMK AO2 LTG DSNT NW T02670215
KJXI 241455Z AUTO 00000KT 10SM CLR 26/22 A2997 RMK AO2 T02570220
KJXI 241435Z AUTO 00000KT 10SM CLR 25/22 A2997 RMK AO2 T02500217
KJXI 241415Z AUTO 00000KT 10SM CLR 24/22 A2996 RMK AO2 T02440217
KJXI 241355Z AUTO 00000KT 10SM CLR 24/22 A2996 RMK AO2 T02350215
KJXI 241335Z AUTO 00000KT 10SM CLR 22/21 A2995 RMK AO2 T02240212
KJXI 241315Z AUTO 00000KT 7SM SCT100 SCT120 21/21 A2995 RMK AO2 T02140207
KJXI 241255Z AUTO 00000KT 5SM BR SCT100 21/20 A2995 RMK AO2 T02050201
KJXI 241235Z AUTO 00000KT 4SM BR CLR 20/20 A2995 RMK AO2 T02010198
KJXI 241215Z AUTO 00000KT 7SM CLR 20/20 A2994 RMK AO2 T02020200
KJXI 241155Z AUTO 00000KT 5SM BR CLR 20/20 A2994 RMK AO2 T01980196 10230 20198
KJXI 241135Z AUTO 00000KT 10SM CLR 20/20 A2993 RMK AO2 T02020198
KJXI 241115Z AUTO 00000KT 7SM SCT120 20/20 A2993 RMK AO2 T02000197
KJXI 241055Z AUTO 00000KT 7SM CLR 20/20 A2993 RMK AO2 T02040201
KJXI 241035Z AUTO 00000KT 7SM CLR 20/20 A2993 RMK AO2 T02020199
KJXI 241015Z AUTO 00000KT 7SM SCT110 21/20 A2992 RMK AO2 T02050200
KJXI 240955Z AUTO 00000KT 7SM SCT110 21/20 A2992 RMK AO2 T02060201
KJXI 240935Z AUTO 00000KT 7SM TS CLR 21/20 A2992 RMK AO2 LTG DSNT NW T02060201
KJXI 240915Z AUTO 00000KT 10SM CLR 21/20 A2993 RMK AO2 T02090202
KJXI 240855Z AUTO 00000KT 7SM CLR 21/20 A2992 RMK AO2 T02080202
KJXI 240835Z AUTO 00000KT 10SM TS CLR 21/20 A2992 RMK AO2 LTG DSNT NW T02090203
KJXI 240815Z AUTO 00000KT 10SM CLR 22/21 A2992 RMK AO2 T02150205
KJXI 240755Z AUTO 00000KT 10SM CLR 22/20 A2992 RMK AO2 T02150204
KJXI 240735Z AUTO 00000KT 10SM SCT110 23/21 A2991 RMK AO2 T02250207
KJXI 240715Z AUTO 00000KT 10SM TS SCT041 22/21 A2991 RMK AO2 LTG DSNT NW T02200206
KJXI 240655Z AUTO 00000KT 10SM SCT041 22/21 A2991 RMK AO2 T02200206
KJXI 240635Z AUTO 00000KT 10SM CLR 22/21 A2990 RMK AO2 T02220206
KJXI 240615Z AUTO 00000KT 10SM CLR 23/21 A2990 RMK AO2 T02300207
KJXI 240555Z AUTO 00000KT 10SM CLR 22/21 A2990 RMK AO2 T02210208 10283 20220 403400195
KJXI 240535Z AUTO 00000KT 10SM SCT110 22/21 A2991 RMK AO2 T02210207
KJXI 240515Z AUTO 00000KT 10SM CLR 22/21 A2992 RMK AO2 T02240210
KJXI 240455Z AUTO 00000KT 10SM CLR 22/21 A2992 RMK AO2 T02210207
KJXI 240435Z AUTO 00000KT 10SM CLR 22/21 A2991 RMK AO2 T02230207
KJXI 240415Z AUTO 00000KT 10SM CLR 23/21 A2991 RMK AO2 T02300208
KJXI 240355Z AUTO 00000KT 10SM CLR 23/21 A2991 RMK AO2 T02260207
KJXI 240335Z AUTO 00000KT 10SM CLR 23/21 A2991 RMK AO2 T02340207
KJXI 240315Z AUTO 00000KT 10SM CLR 24/21 A2991 RMK AO2 T02360208
KJXI 240255Z AUTO 00000KT 10SM CLR 24/21 A2991 RMK AO2 T02380210
KJXI 240235Z AUTO 00000KT 10SM CLR 24/22 A2991 RMK AO2 T02370215
KJXI 240215Z AUTO 00000KT 10SM TS CLR 24/22 A2991 RMK AO2 LTG DSNT NW T02370215
KJXI 240155Z AUTO 00000KT 10SM CLR 24/21 A2991 RMK AO2 T02410205
KJXI 240135Z AUTO 00000KT 10SM CLR 25/21 A2991 RMK AO2 T02450211
KJXI 240115Z AUTO 00000KT 10SM TS CLR 25/21 A2990 RMK AO2 LTG DSNT NW T02510208
KJXI 240055Z AUTO 00000KT 10SM CLR 26/21 A2989 RMK AO2 T02600205
KJXI 240035Z AUTO 00000KT 10SM CLR 26/21 A2988 RMK AO2 T02610208
KJXI 240015Z AUTO 00000KT 10SM CLR 27/21 A2988 RMK AO2 T02740205
KJXI 232355Z AUTO 00000KT 10SM CLR 28/20 A2988 RMK AO2 T02840201 10340 20284
KJXI 232335Z AUTO 00000KT 10SM CLR 29/21 A2989 RMK AO2 T02910206
KJXI 232315Z AUTO 00000KT 10SM TS CLR 29/20 A2989 RMK AO2 LTG DSNT NW T02940199
KJXI 232255Z AUTO 00000KT 10SM BKN120 29/20 A2989 RMK AO2 T02920198
KJXI 232235Z AUTO 00000KT 10SM BKN120 29/19 A2989 RMK AO2 T02900194
KJXI 232215Z AUTO 11003KT 10SM BKN120 29/19 A2989 RMK AO2 T02910191
KJXI 232155Z AUTO 11005KT 10SM BKN110 30/19 A2989 RMK AO2 T02960186
KJXI 232135Z AUTO 11009KT 10SM SCT110 30/19 A2989 RMK AO2 T02970191
KJXI 232115Z AUTO 12009G15KT 10SM CLR 31/20 A2989 RMK AO2 T03120201
KJXI 232055Z AUTO 07005KT 10SM SCT065 SCT085 SCT110 32/20 A2990 RMK AO2 T03160197
KJXI 232035Z AUTO 05004KT 10SM SCT065 BKN085 33/20 A2990 RMK AO2 T03260200
KJXI 232015Z AUTO 07006KT 10SM SCT055 SCT075 BKN095 33/20 A2991 RMK AO2 T03260200
KJXI 231955Z AUTO 10005KT 10SM SCT055 SCT075 BKN120 34/19 A2991 RMK AO2 T03350192
KJXI 231935Z AUTO 10007KT 10SM SCT055 SCT075 SCT090 34/19 A2992 RMK AO2 T03360194
KJXI 231915Z AUTO 10007KT 10SM CLR 33/19 A2993 RMK AO2 T03320190
KJXI 231855Z AUTO 09004KT 10SM SCT050 SCT065 SCT100 32/20 A2994 RMK AO2 T03240202
KJXI 231835Z AUTO 07005KT 10SM SCT050 BKN100 31/20 A2995 RMK AO2 T03140202
KJXI 231815Z AUTO 13005KT 10SM SCT050 SCT065 33/20 A2996 RMK AO2 T03250198
KJXI 231755Z AUTO 10006KT 10SM SCT050 SCT065 32/20 A2996 RMK AO2 T03190196 10325 20195
KJXI 231735Z AUTO 00000KT 10SM SCT047 SCT050 32/20 A2997 RMK AO2 T03150201
KJXI 231715Z AUTO 10007KT 10SM TS SCT050 32/21 A2998 RMK AO2 LTG DSNT NW T03160206
KJXI 231655Z AUTO 10005KT 10SM CLR 32/21 A2998 RMK AO2 T03160208
KJXI 231635Z AUTO 08004KT 10SM CLR 31/21 A2999 RMK AO2 T03080210
KJXI 231615Z AUTO 14003KT 10SM CLR 30/21 A2999 RMK AO2 T03030209
KJXI 231555Z AUTO 09003KT 10SM TS CLR 30/22 A2999 RMK AO2 LTG DSNT NW T02960216
KJXI 231535Z AUTO 13004KT 10SM CLR 29/22 A2999 RMK AO2 T02890215
KJXI 231515Z AUTO 00000KT 10SM TS CLR 28/22 A2999 RMK AO2 T02770215
KJXI 231455Z AUTO 13004KT 10SM CLR 27/22 A2999 RMK AO2 T02660215
KJXI 231435Z AUTO 00000KT 10SM CLR 26/22 A2998 RMK AO2 T02590220
KJXI 231415Z AUTO 00000KT 10SM CLR 25/22 A2998 RMK AO2 T02500216
KJXI 231355Z AUTO 00000KT 10SM CLR 24/21 A2998 RMK AO2 T02400213
KJXI 231335Z AUTO 00000KT 10SM CLR 23/21 A2998 RMK AO2 T02250209
KJXI 231315Z AUTO 00000KT 10SM CLR 21/20 A2998 RMK AO2 T02120202
KJXI 231255Z AUTO 00000KT 7SM CLR 20/20 A2997 RMK AO2 T02010197
KJXI 231235Z AUTO 00000KT 5SM BR CLR 20/19 A2997 RMK AO2 T01960193
KJXI 231215Z AUTO 00000KT 5SM BR CLR 20/19 A2997 RMK AO2 T01950192
KJXI 231155Z AUTO 00000KT 5SM BR CLR 20/20 A2996 RMK AO2 T01970195 10217 20196
KJXI 231135Z AUTO 00000KT 5SM BR CLR 20/20 A2996 RMK AO2 T02000197
KJXI 231115Z AUTO 00000KT 5SM BR CLR 20/20 A2996 RMK AO2 T02000197
KJXI 231055Z AUTO 00000KT 5SM BR CLR 20/20 A2995 RMK AO2 T02000196
KJXI 231035Z AUTO 00000KT 7SM CLR 20/20 A2995 RMK AO2 T02000197
KJXI 231015Z AUTO 00000KT 7SM TS CLR 20/20 A2995 RMK AO2 LTG DSNT NW T02000195
KJXI 230955Z AUTO 00000KT 7SM CLR 20/20 A2995 RMK AO2 T02000195
KJXI 230935Z AUTO 00000KT 7SM TS CLR 20/20 A2995 RMK AO2 LTG DSNT NW T02040200
KJXI 230915Z AUTO 00000KT 10SM SCT110 20/20 A2995 RMK AO2 T02040197
KJXI 230855Z AUTO 00000KT 10SM CLR 21/20 A2995 RMK AO2 T02050200
KJXI 230835Z AUTO 00000KT 10SM TS CLR 21/20 A2995 RMK AO2 LTG DSNT NW T02070200
KJXI 230815Z AUTO 00000KT 10SM SCT100 21/20 A2995 RMK AO2 T02080201
KJXI 230755Z AUTO 00000KT 10SM CLR 21/20 A2995 RMK AO2 T02100201
KJXI 230735Z AUTO 00000KT 10SM CLR 21/20 A2995 RMK AO2 T02080201
KJXI 230715Z AUTO 00000KT 10SM TS CLR 21/20 A2995 RMK AO2 LTG DSNT NW T02110202
KJXI 230655Z AUTO 00000KT 10SM CLR 21/20 A2995 RMK AO2 T02130203
KJXI 230635Z AUTO 00000KT 10SM CLR 21/20 A2995 RMK AO2 T02140203
KJXI 230615Z AUTO 00000KT 10SM CLR 22/21 A2995 RMK AO2 T02150205
KJXI 230555Z AUTO 00000KT 10SM CLR 22/21 A2995 RMK AO2 T02170205 10298 20216 403260201
KJXI 230535Z AUTO 00000KT 10SM CLR 22/21 A2995 RMK AO2 T02200205
KJXI 230515Z AUTO 00000KT 10SM CLR 22/21 A2995 RMK AO2 T02200206
KJXI 230455Z AUTO 00000KT 10SM CLR 23/21 A2996 RMK AO2 T02260206
KJXI 230435Z AUTO 00000KT 10SM CLR 22/21 A2996 RMK AO2 T02240207
KJXI 230415Z AUTO 00000KT 10SM CLR 23/21 A2995 RMK AO2 T02290208
KJXI 230355Z AUTO 00000KT 10SM CLR 24/21 A2995 RMK AO2 T02350210